Terminal Aerodrome Forecast
Issued by NWS Charleston, WV

Home | Current Version | Previous Version | Text Only | Print | Product List | Glossary On
Versions: 1 2 3 4 5 6 7 8 9 10 11 12 13 14 15 16 17 18 19 20 21 22
000
FTUS41 KRLX 022332
TAFPKB
TAF
KPKB 022332Z 0300/0324 VRB03KT P6SM BKN017
     FM030300 00000KT 6SM BR BKN020
     FM030800 VRB03KT 5SM BR BKN025
     FM031000 VRB03KT 6SM BR BKN025
     FM031400 VRB03KT P6SM OVC025
     FM031800 VRB03KT P6SM BKN035
     FM032100 10004KT P6SM VCTS BKN035CB=

USA.gov is the U.S. government's official web portal to all federal, state and local government web resources and services.